createdAt,value
2019-02-22T00:00:10.435Z,1015.24
2019-02-22T00:01:10.426Z,1015.28
2019-02-22T00:02:10.418Z,1015.22
2019-02-22T00:03:10.408Z,1015.27
2019-02-22T00:04:10.398Z,1015.28
2019-02-22T00:05:10.389Z,1015.31
2019-02-22T00:06:10.380Z,1015.33
2019-02-22T00:07:10.370Z,1015.33
2019-02-22T00:08:10.362Z,1015.32
2019-02-22T00:09:10.352Z,1015.30
2019-02-22T00:10:10.344Z,1015.33
2019-02-22T00:11:10.337Z,1015.32
2019-02-22T00:12:10.323Z,1015.33
2019-02-22T00:13:10.313Z,1015.30
2019-02-22T00:14:10.305Z,1015.28
2019-02-22T00:15:10.299Z,1015.27
2019-02-22T00:16:10.286Z,1015.28
2019-02-22T00:17:10.275Z,1015.34
2019-02-22T00:18:10.266Z,1015.32
2019-02-22T00:19:10.261Z,1015.32
2019-02-22T00:20:10.248Z,1015.31
2019-02-22T00:21:10.237Z,1015.37
2019-02-22T00:22:10.229Z,1015.36
2019-02-22T00:23:10.219Z,1015.38
2019-02-22T00:24:10.208Z,1015.37
2019-02-22T00:25:10.199Z,1015.30
2019-02-22T00:26:11.156Z,1015.32
2019-02-22T00:27:10.181Z,1015.37
2019-02-22T00:28:10.171Z,1015.33
2019-02-22T00:29:10.161Z,1015.37
2019-02-22T00:30:10.154Z,1015.35
2019-02-22T00:31:10.143Z,1015.34
2019-02-22T00:32:10.138Z,1015.37
2019-02-22T00:33:10.181Z,1015.37
2019-02-22T00:34:10.157Z,1015.36
2019-02-22T00:35:10.122Z,1015.36
2019-02-22T00:36:10.095Z,1015.37
2019-02-22T00:37:10.120Z,1015.36
2019-02-22T00:38:10.078Z,1015.39
2019-02-22T00:39:10.067Z,1015.35
2019-02-22T00:40:10.057Z,1015.34
2019-02-22T00:41:10.049Z,1015.36
2019-02-22T00:42:10.038Z,1015.39
2019-02-22T00:43:10.030Z,1015.35
2019-02-22T00:44:10.031Z,1015.38
2019-02-22T00:45:10.009Z,1015.44
2019-02-22T00:46:10.001Z,1015.42
2019-02-22T00:47:09.990Z,1015.44
2019-02-22T00:48:09.980Z,1015.42
2019-02-22T00:49:09.971Z,1015.43
2019-02-22T00:50:09.962Z,1015.43
2019-02-22T00:51:09.952Z,1015.40
2019-02-22T00:52:09.941Z,1015.42
2019-02-22T00:53:09.931Z,1015.44
2019-02-22T00:54:09.925Z,1015.41
2019-02-22T00:55:09.916Z,1015.43
2019-02-22T00:56:09.903Z,1015.45
2019-02-22T00:57:09.892Z,1015.44
2019-02-22T00:58:09.884Z,1015.47
2019-02-22T00:59:09.874Z,1015.44
2019-02-22T01:00:09.865Z,1015.42
2019-02-22T01:01:09.856Z,1015.40
2019-02-22T01:02:09.845Z,1015.43
2019-02-22T01:03:09.835Z,1015.44
2019-02-22T01:04:09.833Z,1015.45
2019-02-22T01:05:09.816Z,1015.46
2019-02-22T01:06:09.807Z,1015.47
2019-02-22T01:07:09.798Z,1015.50
2019-02-22T01:08:09.788Z,1015.51
2019-02-22T01:09:09.779Z,1015.49
2019-02-22T01:10:09.770Z,1015.50
2019-02-22T01:11:09.762Z,1015.52
2019-02-22T01:12:09.752Z,1015.50
2019-02-22T01:13:09.742Z,1015.51
2019-02-22T01:14:09.732Z,1015.53
2019-02-22T01:15:09.725Z,1015.52
2019-02-22T01:16:09.713Z,1015.51
2019-02-22T01:17:09.705Z,1015.52
2019-02-22T01:18:09.694Z,1015.50
2019-02-22T01:19:09.685Z,1015.50
2019-02-22T01:20:09.676Z,1015.51
2019-02-22T01:21:09.666Z,1015.51
2019-02-22T01:22:09.657Z,1015.54
2019-02-22T01:23:09.649Z,1015.55
2019-02-22T01:24:09.641Z,1015.57
2019-02-22T01:25:09.630Z,1015.56
2019-02-22T01:26:09.619Z,1015.58
2019-02-22T01:27:09.610Z,1015.61
2019-02-22T01:28:09.601Z,1015.62
2019-02-22T01:29:09.591Z,1015.65
2019-02-22T01:30:09.581Z,1015.67
2019-02-22T01:31:09.573Z,1015.65
2019-02-22T01:32:09.563Z,1015.70
2019-02-22T01:33:09.553Z,1015.71
2019-02-22T01:34:09.544Z,1015.71
2019-02-22T01:35:09.546Z,1015.72
2019-02-22T01:36:09.525Z,1015.67
2019-02-22T01:37:09.515Z,1015.66
2019-02-22T01:38:09.539Z,1015.69
2019-02-22T01:39:09.499Z,1015.67
2019-02-22T01:40:09.487Z,1015.63
2019-02-22T01:41:09.477Z,1015.65
2019-02-22T01:42:09.468Z,1015.65
2019-02-22T01:43:09.459Z,1015.64
2019-02-22T01:44:09.449Z,1015.64
2019-02-22T01:45:09.444Z,1015.64
2019-02-22T01:46:09.430Z,1015.63
2019-02-22T01:47:09.423Z,1015.64
2019-02-22T01:48:09.411Z,1015.62
2019-02-22T01:49:09.401Z,1015.63
2019-02-22T01:50:09.393Z,1015.63
2019-02-22T01:51:09.452Z,1015.67
2019-02-22T01:52:09.372Z,1015.71
2019-02-22T01:53:09.368Z,1015.71
2019-02-22T01:54:09.422Z,1015.70
2019-02-22T01:55:09.345Z,1015.73
2019-02-22T01:56:09.341Z,1015.72
2019-02-22T01:57:09.339Z,1015.72
2019-02-22T01:58:09.317Z,1015.69
2019-02-22T01:59:09.308Z,1015.71
2019-02-22T02:00:09.299Z,1015.73
2019-02-22T02:01:09.294Z,1015.78
2019-02-22T02:02:09.282Z,1015.76
2019-02-22T02:03:09.270Z,1015.80
2019-02-22T02:04:09.260Z,1015.74
2019-02-22T02:05:09.262Z,1015.74
2019-02-22T02:06:09.242Z,1015.74
2019-02-22T02:07:09.233Z,1015.69
2019-02-22T02:08:09.223Z,1015.69
2019-02-22T02:09:09.214Z,1015.69
2019-02-22T02:10:09.205Z,1015.69
2019-02-22T02:11:09.195Z,1015.71
2019-02-22T02:12:09.185Z,1015.66
2019-02-22T02:13:09.176Z,1015.75
2019-02-22T02:14:09.167Z,1015.78
2019-02-22T02:15:09.160Z,1015.74
2019-02-22T02:16:09.151Z,1015.74
2019-02-22T02:17:09.139Z,1015.73
2019-02-22T02:18:09.129Z,1015.77
2019-02-22T02:19:09.120Z,1015.75
2019-02-22T02:20:09.161Z,1015.74
2019-02-22T02:21:09.103Z,1015.73
2019-02-22T02:22:09.091Z,1015.74
2019-02-22T02:23:09.082Z,1015.75
2019-02-22T02:24:09.071Z,1015.78
2019-02-22T02:25:09.062Z,1015.78
2019-02-22T02:26:09.054Z,1015.78
2019-02-22T02:27:09.080Z,1015.78
2019-02-22T02:28:09.033Z,1015.79
2019-02-22T02:29:09.024Z,1015.80
2019-02-22T02:30:09.021Z,1015.79
2019-02-22T02:31:09.008Z,1015.79
2019-02-22T02:32:08.996Z,1015.83
2019-02-22T02:33:08.985Z,1015.82
2019-02-22T02:34:08.976Z,1015.83
2019-02-22T02:35:08.970Z,1015.84
2019-02-22T02:36:08.958Z,1015.84
2019-02-22T02:37:08.948Z,1015.85
2019-02-22T02:38:08.940Z,1015.89
2019-02-22T02:39:08.928Z,1015.86
2019-02-22T02:40:08.921Z,1015.84
2019-02-22T02:41:11.386Z,1015.86
2019-02-22T02:42:08.898Z,1015.89
2019-02-22T02:43:08.888Z,1015.91
2019-02-22T02:44:08.879Z,1015.88
2019-02-22T02:45:08.868Z,1015.90
2019-02-22T02:46:08.859Z,1015.90
2019-02-22T02:47:08.853Z,1015.89
2019-02-22T02:48:08.841Z,1015.88
2019-02-22T02:49:08.828Z,1015.90
2019-02-22T02:50:08.822Z,1015.85
2019-02-22T02:51:08.808Z,1015.83
2019-02-22T02:52:08.799Z,1015.87
2019-02-22T02:53:08.788Z,1015.89
2019-02-22T02:54:08.779Z,1015.90
2019-02-22T02:55:08.771Z,1015.89
2019-02-22T02:56:08.758Z,1015.93
2019-02-22T02:57:08.751Z,1015.91
2019-02-22T02:58:08.741Z,1015.92
2019-02-22T02:59:08.732Z,1015.90
2019-02-22T03:00:08.717Z,1015.90
2019-02-22T03:01:08.709Z,1015.93
2019-02-22T03:02:08.700Z,1015.91
2019-02-22T03:03:08.692Z,1015.92
2019-02-22T03:04:08.679Z,1015.93
2019-02-22T03:05:08.667Z,1015.97
2019-02-22T03:06:08.658Z,1015.99
2019-02-22T03:07:08.649Z,1016.02
2019-02-22T03:08:08.636Z,1016.04
2019-02-22T03:09:08.629Z,1016.08
2019-02-22T03:10:08.622Z,1016.11
2019-02-22T03:11:20.220Z,1016.11
2019-02-22T03:12:08.597Z,1016.11
2019-02-22T03:13:08.589Z,1016.12
2019-02-22T03:14:08.578Z,1016.14
2019-02-22T03:15:08.670Z,1016.14
2019-02-22T03:16:08.557Z,1016.13
2019-02-22T03:17:08.546Z,1016.13
2019-02-22T03:18:08.537Z,1016.14
2019-02-22T03:19:08.528Z,1016.12
2019-02-22T03:20:08.516Z,1016.14
2019-02-22T03:21:08.507Z,1016.14
2019-02-22T03:22:08.497Z,1016.10
2019-02-22T03:23:08.487Z,1016.09
2019-02-22T03:24:08.480Z,1016.12
2019-02-22T03:25:08.467Z,1016.11
2019-02-22T03:26:08.456Z,1016.12
2019-02-22T03:27:08.452Z,1016.15
2019-02-22T03:28:08.434Z,1016.17
2019-02-22T03:29:08.426Z,1016.17
2019-02-22T03:30:08.415Z,1016.22
2019-02-22T03:31:08.502Z,1016.17
2019-02-22T03:32:08.419Z,1016.20
2019-02-22T03:33:08.393Z,1016.21
2019-02-22T03:34:08.389Z,1016.17
2019-02-22T03:35:08.363Z,1016.20
2019-02-22T03:36:08.354Z,1016.18
2019-02-22T03:37:08.343Z,1016.16
2019-02-22T03:38:08.367Z,1016.13
2019-02-22T03:39:08.324Z,1016.13
2019-02-22T03:40:08.311Z,1016.11
2019-02-22T03:41:08.302Z,1016.10
2019-02-22T03:42:08.294Z,1016.14
2019-02-22T03:43:08.288Z,1016.16
2019-02-22T03:44:08.272Z,1016.19
2019-02-22T03:45:08.264Z,1016.16
2019-02-22T03:46:08.302Z,1016.18
2019-02-22T03:47:08.241Z,1016.17
2019-02-22T03:48:08.231Z,1016.19
2019-02-22T03:49:08.219Z,1016.17
2019-02-22T03:50:08.218Z,1016.16
2019-02-22T03:51:08.200Z,1016.11
2019-02-22T03:52:08.189Z,1016.09
2019-02-22T03:53:08.178Z,1016.10
2019-02-22T03:54:08.169Z,1016.08
2019-02-22T03:55:08.159Z,1016.13
2019-02-22T03:56:08.154Z,1016.17
2019-02-22T03:57:08.138Z,1016.19
2019-02-22T03:58:08.128Z,1016.15
2019-02-22T03:59:08.117Z,1016.15
2019-02-22T04:00:08.106Z,1016.13
2019-02-22T04:01:08.095Z,1016.11
2019-02-22T04:02:08.084Z,1016.13
2019-02-22T04:03:08.083Z,1016.11
2019-02-22T04:04:08.065Z,1016.14
2019-02-22T04:05:08.053Z,1016.14
2019-02-22T04:06:08.042Z,1016.15
2019-02-22T04:07:08.035Z,1016.20
2019-02-22T04:08:08.021Z,1016.22
2019-02-22T04:09:08.013Z,1016.24
2019-02-22T04:10:08.001Z,1016.26
2019-02-22T04:11:07.990Z,1016.26
2019-02-22T04:12:07.979Z,1016.23
2019-02-22T04:13:07.970Z,1016.25
2019-02-22T04:14:07.961Z,1016.29
2019-02-22T04:15:07.953Z,1016.35
2019-02-22T04:16:07.942Z,1016.36
2019-02-22T04:17:07.931Z,1016.36
2019-02-22T04:18:07.920Z,1016.35
2019-02-22T04:19:07.908Z,1016.36
2019-02-22T04:20:07.900Z,1016.35
2019-02-22T04:21:07.887Z,1016.34
2019-02-22T04:22:07.880Z,1016.38
2019-02-22T04:23:07.867Z,1016.36
2019-02-22T04:24:07.856Z,1016.33
2019-02-22T04:25:07.847Z,1016.34
2019-02-22T04:26:07.836Z,1016.40
2019-02-22T04:27:07.828Z,1016.38
2019-02-22T04:28:07.816Z,1016.45
2019-02-22T04:29:07.808Z,1016.46
2019-02-22T04:30:07.797Z,1016.46
2019-02-22T04:31:07.786Z,1016.47
2019-02-22T04:32:07.777Z,1016.52
2019-02-22T04:33:07.767Z,1016.48
2019-02-22T04:34:07.757Z,1016.51
2019-02-22T04:35:07.747Z,1016.52
2019-02-22T04:36:07.735Z,1016.53
2019-02-22T04:37:07.725Z,1016.49
2019-02-22T04:38:07.715Z,1016.49
2019-02-22T04:39:07.705Z,1016.43
2019-02-22T04:40:07.699Z,1016.43
2019-02-22T04:41:07.690Z,1016.43
2019-02-22T04:42:07.675Z,1016.45
2019-02-22T04:43:07.665Z,1016.43
2019-02-22T04:44:07.654Z,1016.45
2019-02-22T04:45:07.647Z,1016.46
2019-02-22T04:46:07.656Z,1016.51
2019-02-22T04:47:07.624Z,1016.54
2019-02-22T04:48:07.613Z,1016.52
2019-02-22T04:49:07.603Z,1016.57
2019-02-22T04:50:07.593Z,1016.56
2019-02-22T04:51:07.587Z,1016.54
2019-02-22T04:52:07.572Z,1016.59
2019-02-22T04:53:07.566Z,1016.60
2019-02-22T04:54:07.551Z,1016.57
2019-02-22T04:55:07.544Z,1016.58
2019-02-22T04:56:07.534Z,1016.60
2019-02-22T04:57:07.521Z,1016.60
2019-02-22T04:58:07.511Z,1016.61
2019-02-22T04:59:07.501Z,1016.61
2019-02-22T05:00:07.490Z,1016.62
2019-02-22T05:01:07.479Z,1016.63
2019-02-22T05:02:07.469Z,1016.62
2019-02-22T05:03:07.460Z,1016.60
2019-02-22T05:04:07.449Z,1016.59
2019-02-22T05:05:07.439Z,1016.59
2019-02-22T05:06:07.430Z,1016.66
2019-02-22T05:07:07.420Z,1016.64
2019-02-22T05:08:07.407Z,1016.65
2019-02-22T05:09:07.399Z,1016.65
2019-02-22T05:10:07.388Z,1016.66
2019-02-22T05:11:07.377Z,1016.68
2019-02-22T05:12:10.781Z,1016.67
2019-02-22T05:13:07.356Z,1016.67
2019-02-22T05:14:07.346Z,1016.68
2019-02-22T05:15:12.565Z,1016.68
2019-02-22T05:16:07.327Z,1016.70
2019-02-22T05:17:07.315Z,1016.73
2019-02-22T05:18:07.308Z,1016.75
2019-02-22T05:19:07.297Z,1016.75
2019-02-22T05:20:07.284Z,1016.76
2019-02-22T05:21:07.274Z,1016.79
2019-02-22T05:22:07.264Z,1016.86
2019-02-22T05:23:07.630Z,1016.84
2019-02-22T05:24:07.242Z,1016.86
2019-02-22T05:25:07.233Z,1016.93
2019-02-22T05:26:07.225Z,1016.90
2019-02-22T05:27:07.212Z,1016.88
2019-02-22T05:28:07.201Z,1016.88
2019-02-22T05:29:07.193Z,1016.88
2019-02-22T05:30:07.182Z,1016.91
2019-02-22T05:31:07.173Z,1016.95
2019-02-22T05:32:07.159Z,1016.95
2019-02-22T05:33:07.150Z,1016.96
2019-02-22T05:34:07.139Z,1016.93
2019-02-22T05:35:07.129Z,1016.95
2019-02-22T05:36:07.135Z,1016.99
2019-02-22T05:37:07.107Z,1017.00
2019-02-22T05:38:07.097Z,1017.03
2019-02-22T05:39:18.476Z,1017.03
2019-02-22T05:40:07.077Z,1017.07
2019-02-22T05:41:07.068Z,1017.04
2019-02-22T05:42:07.058Z,1017.11
2019-02-22T05:43:07.044Z,1017.13
2019-02-22T05:44:07.032Z,1017.12
2019-02-22T05:45:07.021Z,1017.09
2019-02-22T05:46:07.017Z,1017.12
2019-02-22T05:47:07.001Z,1017.14
2019-02-22T05:48:07.013Z,1017.11
2019-02-22T05:49:06.978Z,1017.16
2019-02-22T05:50:06.968Z,1017.15
2019-02-22T05:51:06.958Z,1017.14
2019-02-22T05:52:06.955Z,1017.17
2019-02-22T05:53:06.936Z,1017.15
2019-02-22T05:54:06.935Z,1017.21
2019-02-22T05:55:06.915Z,1017.17
2019-02-22T05:56:06.906Z,1017.23
2019-02-22T05:57:06.894Z,1017.17
2019-02-22T05:58:06.882Z,1017.19
2019-02-22T05:59:06.872Z,1017.18
2019-02-22T06:00:06.871Z,1017.18
2019-02-22T06:01:07.077Z,1017.20
2019-02-22T06:02:06.839Z,1017.19
2019-02-22T06:03:06.830Z,1017.20
2019-02-22T06:04:06.818Z,1017.25
2019-02-22T06:05:06.808Z,1017.22
2019-02-22T06:06:06.796Z,1017.25
2019-02-22T06:07:06.786Z,1017.23
2019-02-22T06:08:08.813Z,1017.19
2019-02-22T06:09:06.764Z,1017.25
2019-02-22T06:10:06.757Z,1017.28
2019-02-22T06:11:06.745Z,1017.30
2019-02-22T06:12:06.742Z,1017.31
2019-02-22T06:13:06.725Z,1017.36
2019-02-22T06:14:06.712Z,1017.44
2019-02-22T06:15:06.707Z,1017.46
2019-02-22T06:16:06.689Z,1017.47
2019-02-22T06:17:14.226Z,1017.47
2019-02-22T06:18:06.669Z,1017.48
2019-02-22T06:19:06.658Z,1017.50
2019-02-22T06:20:06.648Z,1017.48
2019-02-22T06:21:06.637Z,1017.52
2019-02-22T06:22:06.627Z,1017.52
2019-02-22T06:23:06.615Z,1017.51
2019-02-22T06:24:06.604Z,1017.53
2019-02-22T06:25:06.595Z,1017.51
2019-02-22T06:26:06.585Z,1017.51
2019-02-22T06:27:06.574Z,1017.50
2019-02-22T06:28:06.562Z,1017.55
2019-02-22T06:29:06.552Z,1017.53
2019-02-22T06:30:06.541Z,1017.50
2019-02-22T06:31:06.531Z,1017.52
2019-02-22T06:32:06.528Z,1017.47
2019-02-22T06:33:06.510Z,1017.51
2019-02-22T06:34:06.499Z,1017.52
2019-02-22T06:35:08.784Z,1017.59
2019-02-22T06:36:06.478Z,1017.55
2019-02-22T06:37:06.468Z,1017.54
2019-02-22T06:38:06.461Z,1017.59
2019-02-22T06:39:06.449Z,1017.58
2019-02-22T06:40:06.438Z,1017.61
2019-02-22T06:41:06.429Z,1017.59
2019-02-22T06:42:06.414Z,1017.61
2019-02-22T06:43:06.404Z,1017.64
2019-02-22T06:44:06.392Z,1017.59
2019-02-22T06:45:06.383Z,1017.57
2019-02-22T06:46:06.372Z,1017.57
2019-02-22T06:47:06.368Z,1017.57
2019-02-22T06:48:06.351Z,1017.58
2019-02-22T06:49:06.339Z,1017.61
2019-02-22T06:50:06.338Z,1017.60
2019-02-22T06:51:06.319Z,1017.63
2019-02-22T06:52:06.308Z,1017.65
2019-02-22T06:53:06.298Z,1017.63
2019-02-22T06:54:06.288Z,1017.62
2019-02-22T06:55:06.277Z,1017.65
2019-02-22T06:56:06.266Z,1017.67
2019-02-22T06:57:06.256Z,1017.66
2019-02-22T06:58:06.246Z,1017.66
2019-02-22T06:59:06.235Z,1017.65
2019-02-22T07:00:06.225Z,1017.66
2019-02-22T07:01:06.213Z,1017.69
2019-02-22T07:02:06.206Z,1017.73
2019-02-22T07:03:06.195Z,1017.75
2019-02-22T07:04:06.261Z,1017.74
2019-02-22T07:05:06.171Z,1017.74
2019-02-22T07:06:06.164Z,1017.76
2019-02-22T07:07:06.153Z,1017.78
2019-02-22T07:08:06.142Z,1017.76
2019-02-22T07:09:06.155Z,1017.79
2019-02-22T07:10:06.119Z,1017.82
2019-02-22T07:11:06.108Z,1017.80
2019-02-22T07:12:06.098Z,1017.80
2019-02-22T07:13:06.089Z,1017.87
2019-02-22T07:14:06.077Z,1017.89
2019-02-22T07:15:06.068Z,1017.91
2019-02-22T07:16:06.055Z,1017.94
2019-02-22T07:17:06.044Z,1017.92
2019-02-22T07:18:06.034Z,1017.95
2019-02-22T07:19:06.024Z,1017.94
2019-02-22T07:20:06.013Z,1017.96
2019-02-22T07:21:06.002Z,1017.93
2019-02-22T07:22:05.993Z,1017.97
2019-02-22T07:23:05.981Z,1018.02
2019-02-22T07:24:05.972Z,1018.01
2019-02-22T07:25:05.960Z,1018.03
2019-02-22T07:26:05.953Z,1018.07
2019-02-22T07:27:05.940Z,1018.08
2019-02-22T07:28:05.929Z,1018.09
2019-02-22T07:29:05.918Z,1018.06
2019-02-22T07:30:05.913Z,1018.08
2019-02-22T07:31:05.898Z,1018.06
2019-02-22T07:32:06.481Z,1018.11
2019-02-22T07:33:05.876Z,1018.10
2019-02-22T07:34:05.880Z,1018.11
2019-02-22T07:35:05.863Z,1018.17
2019-02-22T07:36:05.844Z,1018.16
2019-02-22T07:37:05.834Z,1018.18
2019-02-22T07:38:05.874Z,1018.20
2019-02-22T07:39:05.813Z,1018.23
2019-02-22T07:40:05.802Z,1018.23
2019-02-22T07:41:05.792Z,1018.25
2019-02-22T07:42:05.782Z,1018.27
2019-02-22T07:43:08.308Z,1018.29
2019-02-22T07:44:05.759Z,1018.34
2019-02-22T07:45:05.749Z,1018.32
2019-02-22T07:46:05.739Z,1018.37
2019-02-22T07:47:05.729Z,1018.35
2019-02-22T07:48:05.720Z,1018.34
2019-02-22T07:49:05.708Z,1018.37
2019-02-22T07:50:05.696Z,1018.39
2019-02-22T07:51:05.686Z,1018.39
2019-02-22T07:52:05.677Z,1018.40
2019-02-22T07:53:05.664Z,1018.42
2019-02-22T07:54:05.654Z,1018.44
2019-02-22T07:55:05.646Z,1018.40
2019-02-22T07:56:05.632Z,1018.40
2019-02-22T07:57:05.632Z,1018.46
2019-02-22T07:58:05.612Z,1018.46
2019-02-22T07:59:05.607Z,1018.47
2019-02-22T08:00:05.590Z,1018.46
2019-02-22T08:01:05.586Z,1018.47
2019-02-22T08:02:05.569Z,1018.48
2019-02-22T08:03:05.559Z,1018.50
2019-02-22T08:04:05.547Z,1018.51
2019-02-22T08:05:05.540Z,1018.52
2019-02-22T08:06:05.529Z,1018.53
2019-02-22T08:07:05.519Z,1018.51
2019-02-22T08:08:05.504Z,1018.51
2019-02-22T08:09:05.495Z,1018.51
2019-02-22T08:10:05.500Z,1018.53
2019-02-22T08:11:05.482Z,1018.50
2019-02-22T08:12:05.462Z,1018.56
2019-02-22T08:13:05.452Z,1018.58
2019-02-22T08:14:07.810Z,1018.60
2019-02-22T08:15:05.434Z,1018.60
2019-02-22T08:16:05.421Z,1018.60
2019-02-22T08:17:05.410Z,1018.63
2019-02-22T08:18:05.401Z,1018.64
2019-02-22T08:19:05.389Z,1018.63
2019-02-22T08:20:05.379Z,1018.64
2019-02-22T08:21:05.368Z,1018.71
2019-02-22T08:22:05.358Z,1018.73
2019-02-22T08:23:05.348Z,1018.72
2019-02-22T08:24:05.336Z,1018.74
2019-02-22T08:25:05.326Z,1018.77
2019-02-22T08:26:05.320Z,1018.76
2019-02-22T08:27:05.306Z,1018.79
2019-02-22T08:28:05.294Z,1018.80
2019-02-22T08:29:05.284Z,1018.80
2019-02-22T08:30:05.274Z,1018.81
2019-02-22T08:31:05.264Z,1018.78
2019-02-22T08:32:05.252Z,1018.78
2019-02-22T08:33:05.252Z,1018.80
2019-02-22T08:34:05.232Z,1018.83
2019-02-22T08:35:05.222Z,1018.86
2019-02-22T08:36:05.211Z,1018.86
2019-02-22T08:37:05.202Z,1018.81
2019-02-22T08:38:05.190Z,1018.81
2019-02-22T08:39:05.180Z,1018.83
2019-02-22T08:40:05.169Z,1018.85
2019-02-22T08:41:05.159Z,1018.89
2019-02-22T08:42:05.149Z,1018.89
2019-02-22T08:43:05.141Z,1018.88
2019-02-22T08:44:05.129Z,1018.89
2019-02-22T08:45:05.118Z,1018.90
2019-02-22T08:46:05.108Z,1018.92
2019-02-22T08:47:05.098Z,1018.94
2019-02-22T08:48:05.088Z,1018.94
2019-02-22T08:49:05.077Z,1018.94
2019-02-22T08:50:05.117Z,1018.93
2019-02-22T08:51:05.145Z,1018.94
2019-02-22T08:52:05.049Z,1018.95
2019-02-22T08:53:05.037Z,1018.98
2019-02-22T08:54:05.027Z,1018.96
2019-02-22T08:55:05.016Z,1019.00
2019-02-22T08:56:05.008Z,1018.99
2019-02-22T08:57:04.997Z,1019.00
2019-02-22T08:58:04.987Z,1019.03
2019-02-22T08:59:04.978Z,1019.05
2019-02-22T09:00:04.966Z,1019.03
2019-02-22T09:01:05.006Z,1019.04
2019-02-22T09:02:04.947Z,1019.07
2019-02-22T09:03:04.937Z,1019.07
2019-02-22T09:04:04.927Z,1019.08
2019-02-22T09:05:04.918Z,1019.08
2019-02-22T09:06:04.907Z,1019.09
2019-02-22T09:07:04.897Z,1019.10
2019-02-22T09:08:04.887Z,1019.13
2019-02-22T09:09:04.878Z,1019.12
2019-02-22T09:10:04.892Z,1019.12
2019-02-22T09:11:04.857Z,1019.13
2019-02-22T09:12:04.846Z,1019.18
2019-02-22T09:13:04.839Z,1019.17
2019-02-22T09:14:04.827Z,1019.16
2019-02-22T09:15:04.818Z,1019.19
2019-02-22T09:16:04.807Z,1019.20
2019-02-22T09:17:04.797Z,1019.20
2019-02-22T09:18:04.787Z,1019.20
2019-02-22T09:19:04.777Z,1019.24
2019-02-22T09:20:04.767Z,1019.26
2019-02-22T09:21:04.762Z,1019.27
2019-02-22T09:22:04.748Z,1019.29
2019-02-22T09:23:07.438Z,1019.27
2019-02-22T09:24:04.728Z,1019.30
2019-02-22T09:25:04.720Z,1019.31
2019-02-22T09:26:04.709Z,1019.30
2019-02-22T09:27:04.701Z,1019.33
2019-02-22T09:28:04.692Z,1019.34
2019-02-22T09:29:04.682Z,1019.36
2019-02-22T09:30:04.670Z,1019.40
2019-02-22T09:31:04.660Z,1019.41
2019-02-22T09:32:04.651Z,1019.44
2019-02-22T09:33:04.643Z,1019.45
2019-02-22T09:34:04.631Z,1019.41
2019-02-22T09:35:04.621Z,1019.44
2019-02-22T09:36:04.612Z,1019.39
2019-02-22T09:37:04.602Z,1019.45
2019-02-22T09:38:04.592Z,1019.43
2019-02-22T09:39:04.582Z,1019.45
2019-02-22T09:40:04.571Z,1019.49
2019-02-22T09:41:04.561Z,1019.47
2019-02-22T09:42:04.552Z,1019.44
2019-02-22T09:43:04.542Z,1019.47
2019-02-22T09:44:04.532Z,1019.47
2019-02-22T09:45:04.523Z,1019.49
2019-02-22T09:46:04.514Z,1019.47
2019-02-22T09:47:04.504Z,1019.50
2019-02-22T09:48:04.494Z,1019.50
2019-02-22T09:49:04.484Z,1019.53
2019-02-22T09:50:04.474Z,1019.49
2019-02-22T09:51:04.468Z,1019.53
2019-02-22T09:52:04.457Z,1019.53
2019-02-22T09:53:04.445Z,1019.54
2019-02-22T09:54:04.436Z,1019.56
2019-02-22T09:55:04.427Z,1019.56
2019-02-22T09:56:04.416Z,1019.57
2019-02-22T09:57:04.411Z,1019.57
2019-02-22T09:58:04.402Z,1019.59
2019-02-22T09:59:04.398Z,1019.58
2019-02-22T10:00:04.379Z,1019.58
2019-02-22T10:01:04.371Z,1019.57
2019-02-22T10:02:04.360Z,1019.60
2019-02-22T10:03:04.351Z,1019.62
2019-02-22T10:04:04.340Z,1019.66
2019-02-22T10:05:04.332Z,1019.64
2019-02-22T10:06:04.322Z,1019.66
2019-02-22T10:07:04.316Z,1019.69
2019-02-22T10:08:04.302Z,1019.70
2019-02-22T10:09:04.296Z,1019.71
2019-02-22T10:10:04.283Z,1019.70
2019-02-22T10:11:04.275Z,1019.76
2019-02-22T10:12:04.264Z,1019.76
2019-02-22T10:13:04.255Z,1019.76
2019-02-22T10:14:06.921Z,1019.77
2019-02-22T10:15:04.237Z,1019.75
2019-02-22T10:16:04.227Z,1019.76
2019-02-22T10:17:04.223Z,1019.80
2019-02-22T10:18:04.217Z,1019.80
2019-02-22T10:19:04.200Z,1019.78
2019-02-22T10:20:04.190Z,1019.77
2019-02-22T10:21:04.180Z,1019.78
2019-02-22T10:22:04.177Z,1019.78
2019-02-22T10:23:04.163Z,1019.76
2019-02-22T10:24:04.152Z,1019.77
2019-02-22T10:25:04.143Z,1019.80
2019-02-22T10:26:04.134Z,1019.82
2019-02-22T10:27:04.127Z,1019.83
2019-02-22T10:28:04.115Z,1019.83
2019-02-22T10:29:04.106Z,1019.88
2019-02-22T10:30:04.101Z,1019.87
2019-02-22T10:31:04.088Z,1019.93
2019-02-22T10:32:04.082Z,1019.92
2019-02-22T10:33:04.068Z,1019.91
2019-02-22T10:34:04.065Z,1019.91
2019-02-22T10:35:04.051Z,1019.88
2019-02-22T10:36:04.043Z,1019.88
2019-02-22T10:37:04.031Z,1019.89
2019-02-22T10:38:04.023Z,1019.89
2019-02-22T10:39:06.015Z,1019.92
2019-02-22T10:40:04.004Z,1019.93
2019-02-22T10:41:03.995Z,1019.93
2019-02-22T10:42:03.986Z,1019.92
2019-02-22T10:43:03.980Z,1019.93
2019-02-22T10:44:03.970Z,1019.92
2019-02-22T10:45:03.959Z,1019.97
2019-02-22T10:46:03.953Z,1019.93
2019-02-22T10:47:03.940Z,1019.94
2019-02-22T10:48:03.930Z,1019.92
2019-02-22T10:49:03.942Z,1019.92
2019-02-22T10:50:03.913Z,1019.92
2019-02-22T10:51:03.904Z,1019.96
2019-02-22T10:52:03.894Z,1019.95
2019-02-22T10:53:03.894Z,1019.95
2019-02-22T10:54:03.881Z,1019.92
2019-02-22T10:55:03.868Z,1019.97
2019-02-22T10:56:03.857Z,1019.95
2019-02-22T10:57:03.851Z,1019.91
2019-02-22T10:58:03.840Z,1019.94
2019-02-22T10:59:03.831Z,1019.95
2019-02-22T11:00:03.828Z,1020.01
2019-02-22T11:01:03.813Z,1019.95
2019-02-22T11:02:03.815Z,1020.03
2019-02-22T11:03:03.796Z,1019.99
2019-02-22T11:04:03.787Z,1020.03
2019-02-22T11:05:03.779Z,1020.02
2019-02-22T11:06:03.770Z,1020.04
2019-02-22T11:07:03.762Z,1020.04
2019-02-22T11:08:03.751Z,1020.02
2019-02-22T11:09:03.744Z,1020.04
2019-02-22T11:10:03.735Z,1020.03
2019-02-22T11:11:03.727Z,1020.04
2019-02-22T11:12:03.797Z,1020.08
2019-02-22T11:13:03.708Z,1020.10
2019-02-22T11:14:03.699Z,1020.11
2019-02-22T11:15:03.690Z,1020.11
2019-02-22T11:16:03.681Z,1020.09
2019-02-22T11:17:03.672Z,1020.06
2019-02-22T11:18:03.664Z,1020.10
2019-02-22T11:19:03.656Z,1020.07
2019-02-22T11:20:03.646Z,1020.10
2019-02-22T11:21:03.637Z,1020.11
2019-02-22T11:22:03.628Z,1020.10
2019-02-22T11:23:03.619Z,1020.10
2019-02-22T11:24:03.609Z,1020.11
2019-02-22T11:25:03.604Z,1020.10
2019-02-22T11:26:03.592Z,1020.10
2019-02-22T11:27:03.587Z,1020.13
2019-02-22T11:28:03.574Z,1020.14
2019-02-22T11:29:03.565Z,1020.16
2019-02-22T11:30:03.557Z,1020.16
2019-02-22T11:31:03.551Z,1020.15
2019-02-22T11:32:03.541Z,1020.15
2019-02-22T11:33:03.530Z,1020.13
2019-02-22T11:34:03.525Z,1020.10
2019-02-22T11:35:03.511Z,1020.11
2019-02-22T11:36:03.507Z,1020.08
2019-02-22T11:37:03.494Z,1020.06
2019-02-22T11:38:03.485Z,1020.05
2019-02-22T11:39:03.495Z,1020.02
2019-02-22T11:40:03.466Z,1020.04
2019-02-22T11:41:03.457Z,1020.02
2019-02-22T11:42:03.452Z,1020.04
2019-02-22T11:43:03.443Z,1020.00
2019-02-22T11:44:03.431Z,1020.00
2019-02-22T11:45:03.421Z,1020.01
2019-02-22T11:46:03.413Z,1020.06
2019-02-22T11:47:03.404Z,1020.02
2019-02-22T11:48:09.224Z,1020.06
2019-02-22T11:49:03.386Z,1020.04
2019-02-22T11:50:03.378Z,1020.08
2019-02-22T11:51:03.370Z,1020.08
2019-02-22T11:52:03.360Z,1020.06
2019-02-22T11:53:03.352Z,1020.03
2019-02-22T11:54:03.343Z,1020.05
2019-02-22T11:55:03.335Z,1020.03
2019-02-22T11:56:03.326Z,1019.99
2019-02-22T11:57:03.317Z,1019.96
2019-02-22T11:58:03.310Z,1020.00
2019-02-22T11:59:03.302Z,1019.97
2019-02-22T12:00:03.295Z,1019.99
2019-02-22T12:01:03.933Z,1019.99
2019-02-22T12:02:03.276Z,1019.99
2019-02-22T12:03:15.878Z,1019.97
2019-02-22T12:04:03.260Z,1019.98
2019-02-22T12:05:03.248Z,1019.95